sensor_id;sensor_type;location;lat;lon;timestamp;temperature;humidity
14188;DHT22;7175;51.978;5.330;2022-12-18T02:15:09;-3.40;99.90
14188;DHT22;7175;51.978;5.330;2022-12-18T02:17:43;-3.30;99.90
14188;DHT22;7175;51.978;5.330;2022-12-18T07:51:39;-3.80;99.90
14188;DHT22;7175;51.978;5.330;2022-12-18T07:54:07;-3.80;99.90
14188;DHT22;7175;51.978;5.330;2022-12-18T07:56:35;-3.80;99.90
14188;DHT22;7175;51.978;5.330;2022-12-18T07:59:03;-3.80;99.90
14188;DHT22;7175;51.978;5.330;2022-12-18T08:01:33;-3.80;99.90
14188;DHT22;7175;51.978;5.330;2022-12-18T08:04:01;-3.80;99.90
14188;DHT22;7175;51.978;5.330;2022-12-18T08:06:29;-3.70;99.90
14188;DHT22;7175;51.978;5.330;2022-12-18T08:08:57;-3.70;99.90
14188;DHT22;7175;51.978;5.330;2022-12-18T08:11:27;-3.60;99.90
14188;DHT22;7175;51.978;5.330;2022-12-18T08:13:55;-3.60;99.90
14188;DHT22;7175;51.978;5.330;2022-12-18T08:16:24;-3.60;99.90
14188;DHT22;7175;51.978;5.330;2022-12-18T08:18:54;-3.50;99.90
14188;DHT22;7175;51.978;5.330;2022-12-18T08:21:23;-3.40;99.90
14188;DHT22;7175;51.978;5.330;2022-12-18T08:23:53;-3.40;99.90
14188;DHT22;7175;51.978;5.330;2022-12-18T08:26:22;-3.30;99.90
14188;DHT22;7175;51.978;5.330;2022-12-18T08:28:51;-3.30;99.90
14188;DHT22;7175;51.978;5.330;2022-12-18T08:31:19;-3.20;99.90
14188;DHT22;7175;51.978;5.330;2022-12-18T08:33:50;-3.20;99.90
14188;DHT22;7175;51.978;5.330;2022-12-18T08:36:21;-3.10;99.90
14188;DHT22;7175;51.978;5.330;2022-12-18T08:38:50;-3.10;99.90
14188;DHT22;7175;51.978;5.330;2022-12-18T08:41:19;-3.00;99.90
14188;DHT22;7175;51.978;5.330;2022-12-18T08:43:47;-2.90;99.90
14188;DHT22;7175;51.978;5.330;2022-12-18T08:46:35;-2.90;99.90
14188;DHT22;7175;51.978;5.330;2022-12-18T08:49:04;-2.80;99.90
14188;DHT22;7175;51.978;5.330;2022-12-18T08:51:34;-2.70;99.90
14188;DHT22;7175;51.978;5.330;2022-12-18T08:54:03;-2.60;99.90
14188;DHT22;7175;51.978;5.330;2022-12-18T08:56:32;-2.50;99.90
14188;DHT22;7175;51.978;5.330;2022-12-18T08:59:01;-2.40;99.90
14188;DHT22;7175;51.978;5.330;2022-12-18T09:01:31;-2.40;99.90
14188;DHT22;7175;51.978;5.330;2022-12-18T09:04:01;-2.30;99.90
14188;DHT22;7175;51.978;5.330;2022-12-18T09:06:33;-2.20;99.90
14188;DHT22;7175;51.978;5.330;2022-12-18T09:09:03;-2.20;99.90
14188;DHT22;7175;51.978;5.330;2022-12-18T09:11:33;-2.20;99.90
14188;DHT22;7175;51.978;5.330;2022-12-18T09:14:02;-2.10;99.90
14188;DHT22;7175;51.978;5.330;2022-12-18T09:16:31;-2.10;99.90
14188;DHT22;7175;51.978;5.330;2022-12-18T09:19:03;-2.00;99.90
14188;DHT22;7175;51.978;5.330;2022-12-18T09:21:37;-2.00;99.90
14188;DHT22;7175;51.978;5.330;2022-12-18T09:24:14;-2.00;99.90
14188;DHT22;7175;51.978;5.330;2022-12-18T09:26:43;-1.90;99.90
14188;DHT22;7175;51.978;5.330;2022-12-18T09:29:14;-1.90;99.90
14188;DHT22;7175;51.978;5.330;2022-12-18T09:31:45;-1.80;99.90
14188;DHT22;7175;51.978;5.330;2022-12-18T09:34:14;-1.80;99.90
14188;DHT22;7175;51.978;5.330;2022-12-18T09:36:44;-1.70;99.90
14188;DHT22;7175;51.978;5.330;2022-12-18T09:39:13;-1.70;99.90
14188;DHT22;7175;51.978;5.330;2022-12-18T09:41:45;-1.60;99.90
14188;DHT22;7175;51.978;5.330;2022-12-18T09:44:21;-1.60;99.90
14188;DHT22;7175;51.978;5.330;2022-12-18T09:46:55;-1.60;99.90
14188;DHT22;7175;51.978;5.330;2022-12-18T09:49:29;-1.60;99.90
14188;DHT22;7175;51.978;5.330;2022-12-18T09:52:02;-1.60;99.90
14188;DHT22;7175;51.978;5.330;2022-12-18T09:54:35;-1.50;99.90
14188;DHT22;7175;51.978;5.330;2022-12-18T09:57:04;-1.50;99.90
14188;DHT22;7175;51.978;5.330;2022-12-18T09:59:36;-1.50;99.90
14188;DHT22;7175;51.978;5.330;2022-12-18T10:02:18;-1.40;99.90
14188;DHT22;7175;51.978;5.330;2022-12-18T10:05:02;-1.40;99.90
14188;DHT22;7175;51.978;5.330;2022-12-18T10:07:42;-1.30;99.90
14188;DHT22;7175;51.978;5.330;2022-12-18T10:10:21;-1.30;99.90
14188;DHT22;7175;51.978;5.330;2022-12-18T10:12:57;-1.20;99.90
14188;DHT22;7175;51.978;5.330;2022-12-18T10:15:34;-1.20;99.90
14188;DHT22;7175;51.978;5.330;2022-12-18T10:18:15;-1.20;99.90
14188;DHT22;7175;51.978;5.330;2022-12-18T10:20:49;-1.10;99.90
14188;DHT22;7175;51.978;5.330;2022-12-18T10:23:25;-1.10;99.90
14188;DHT22;7175;51.978;5.330;2022-12-18T10:26:00;-1.00;99.90
14188;DHT22;7175;51.978;5.330;2022-12-18T10:28:31;-1.00;99.90
14188;DHT22;7175;51.978;5.330;2022-12-18T10:31:01;-0.90;99.90
14188;DHT22;7175;51.978;5.330;2022-12-18T10:33:31;-0.90;99.90
14188;DHT22;7175;51.978;5.330;2022-12-18T10:36:01;-0.90;99.90
14188;DHT22;7175;51.978;5.330;2022-12-18T10:38:32;-0.80;99.90
14188;DHT22;7175;51.978;5.330;2022-12-18T10:41:02;-0.80;99.90
14188;DHT22;7175;51.978;5.330;2022-12-18T10:43:32;-0.80;99.90
14188;DHT22;7175;51.978;5.330;2022-12-18T10:46:13;-0.70;99.90
14188;DHT22;7175;51.978;5.330;2022-12-18T10:48:52;-0.70;99.90
14188;DHT22;7175;51.978;5.330;2022-12-18T10:51:24;-0.60;99.90
14188;DHT22;7175;51.978;5.330;2022-12-18T10:54:00;-0.60;99.90
14188;DHT22;7175;51.978;5.330;2022-12-18T10:56:31;-0.60;99.90
14188;DHT22;7175;51.978;5.330;2022-12-18T10:59:03;-0.50;99.90
14188;DHT22;7175;51.978;5.330;2022-12-18T11:01:49;-0.50;99.90
14188;DHT22;7175;51.978;5.330;2022-12-18T11:04:21;-0.50;99.90
14188;DHT22;7175;51.978;5.330;2022-12-18T11:06:56;-0.50;99.90
14188;DHT22;7175;51.978;5.330;2022-12-18T11:09:27;-0.40;99.90
14188;DHT22;7175;51.978;5.330;2022-12-18T11:11:58;-0.40;99.90
14188;DHT22;7175;51.978;5.330;2022-12-18T11:14:28;-0.40;99.90
14188;DHT22;7175;51.978;5.330;2022-12-18T11:16:58;-0.30;99.90
14188;DHT22;7175;51.978;5.330;2022-12-18T11:19:53;-0.30;99.90
14188;DHT22;7175;51.978;5.330;2022-12-18T11:22:25;-0.30;99.90
14188;DHT22;7175;51.978;5.330;2022-12-18T11:24:59;-0.20;99.90
14188;DHT22;7175;51.978;5.330;2022-12-18T11:27:50;-0.10;99.90
14188;DHT22;7175;51.978;5.330;2022-12-18T11:30:26;-0.10;99.90
14188;DHT22;7175;51.978;5.330;2022-12-18T11:33:06;-0.10;99.90
14188;DHT22;7175;51.978;5.330;2022-12-18T11:35:40;0.00;99.90
14188;DHT22;7175;51.978;5.330;2022-12-18T11:38:18;0.00;99.90
14188;DHT22;7175;51.978;5.330;2022-12-18T11:40:55;0.10;99.90
14188;DHT22;7175;51.978;5.330;2022-12-18T11:43:28;0.00;99.90
14188;DHT22;7175;51.978;5.330;2022-12-18T11:46:02;0.10;99.90
14188;DHT22;7175;51.978;5.330;2022-12-18T11:48:34;0.10;99.90
14188;DHT22;7175;51.978;5.330;2022-12-18T11:51:11;0.20;99.90
14188;DHT22;7175;51.978;5.330;2022-12-18T11:53:41;0.20;99.90
14188;DHT22;7175;51.978;5.330;2022-12-18T11:56:26;0.20;99.90
14188;DHT22;7175;51.978;5.330;2022-12-18T11:59:07;0.20;99.90
14188;DHT22;7175;51.978;5.330;2022-12-18T12:01:46;0.20;99.90
14188;DHT22;7175;51.978;5.330;2022-12-18T12:04:46;0.30;99.90
14188;DHT22;7175;51.978;5.330;2022-12-18T12:07:33;0.30;99.90
14188;DHT22;7175;51.978;5.330;2022-12-18T12:10:15;0.30;99.90
14188;DHT22;7175;51.978;5.330;2022-12-18T12:12:56;0.30;99.90
14188;DHT22;7175;51.978;5.330;2022-12-18T12:15:34;0.30;99.90
14188;DHT22;7175;51.978;5.330;2022-12-18T12:18:18;0.40;99.90
14188;DHT22;7175;51.978;5.330;2022-12-18T12:20:54;0.40;99.90
14188;DHT22;7175;51.978;5.330;2022-12-18T12:23:34;0.40;99.90
14188;DHT22;7175;51.978;5.330;2022-12-18T12:26:08;0.40;99.90
14188;DHT22;7175;51.978;5.330;2022-12-18T12:29:04;0.40;99.90
14188;DHT22;7175;51.978;5.330;2022-12-18T12:31:52;0.40;99.90
14188;DHT22;7175;51.978;5.330;2022-12-18T12:34:26;0.40;99.90
14188;DHT22;7175;51.978;5.330;2022-12-18T12:37:07;0.50;99.90
14188;DHT22;7175;51.978;5.330;2022-12-18T12:39:43;0.50;99.90
14188;DHT22;7175;51.978;5.330;2022-12-18T12:42:18;0.50;99.90
14188;DHT22;7175;51.978;5.330;2022-12-18T12:45:16;0.50;99.90
14188;DHT22;7175;51.978;5.330;2022-12-18T12:47:48;0.50;99.90
14188;DHT22;7175;51.978;5.330;2022-12-18T12:50:20;0.60;99.90
14188;DHT22;7175;51.978;5.330;2022-12-18T12:52:52;0.60;99.90
14188;DHT22;7175;51.978;5.330;2022-12-18T12:55:23;0.60;99.90
14188;DHT22;7175;51.978;5.330;2022-12-18T12:57:59;0.60;99.90
14188;DHT22;7175;51.978;5.330;2022-12-18T13:00:39;0.70;99.90
14188;DHT22;7175;51.978;5.330;2022-12-18T13:03:13;0.70;99.90
14188;DHT22;7175;51.978;5.330;2022-12-18T13:05:49;0.70;99.90
14188;DHT22;7175;51.978;5.330;2022-12-18T13:08:26;0.70;99.90
14188;DHT22;7175;51.978;5.330;2022-12-18T13:11:01;0.70;99.90
14188;DHT22;7175;51.978;5.330;2022-12-18T13:13:54;0.70;99.90
14188;DHT22;7175;51.978;5.330;2022-12-18T13:16:26;0.70;99.90
14188;DHT22;7175;51.978;5.330;2022-12-18T13:18:56;0.70;99.90
14188;DHT22;7175;51.978;5.330;2022-12-18T13:21:27;0.70;99.90
14188;DHT22;7175;51.978;5.330;2022-12-18T13:23:57;0.70;99.90
14188;DHT22;7175;51.978;5.330;2022-12-18T13:26:42;0.70;99.90
14188;DHT22;7175;51.978;5.330;2022-12-18T13:29:13;0.80;99.90
14188;DHT22;7175;51.978;5.330;2022-12-18T13:32:10;0.80;99.90
14188;DHT22;7175;51.978;5.330;2022-12-18T13:34:49;0.80;99.90
14188;DHT22;7175;51.978;5.330;2022-12-18T13:37:42;0.80;99.90
14188;DHT22;7175;51.978;5.330;2022-12-18T13:43:33;0.80;99.90
14188;DHT22;7175;51.978;5.330;2022-12-18T13:46:19;0.80;99.90
14188;DHT22;7175;51.978;5.330;2022-12-18T13:48:55;0.80;99.90
14188;DHT22;7175;51.978;5.330;2022-12-18T13:51:25;0.80;99.90
14188;DHT22;7175;51.978;5.330;2022-12-18T13:53:56;0.80;99.90
14188;DHT22;7175;51.978;5.330;2022-12-18T13:56:28;0.80;99.90
14188;DHT22;7175;51.978;5.330;2022-12-18T13:59:21;0.80;99.90
14188;DHT22;7175;51.978;5.330;2022-12-18T14:01:54;0.80;99.90
14188;DHT22;7175;51.978;5.330;2022-12-18T14:04:27;0.90;99.90
14188;DHT22;7175;51.978;5.330;2022-12-18T14:06:58;0.90;99.90
14188;DHT22;7175;51.978;5.330;2022-12-18T14:09:30;0.90;99.90
14188;DHT22;7175;51.978;5.330;2022-12-18T14:12:00;0.90;99.90
14188;DHT22;7175;51.978;5.330;2022-12-18T14:14:48;0.90;99.90
14188;DHT22;7175;51.978;5.330;2022-12-18T14:17:21;0.90;99.90
14188;DHT22;7175;51.978;5.330;2022-12-18T14:19:51;0.90;99.90
14188;DHT22;7175;51.978;5.330;2022-12-18T14:22:21;0.90;99.90
14188;DHT22;7175;51.978;5.330;2022-12-18T14:25:10;0.90;99.90
14188;DHT22;7175;51.978;5.330;2022-12-18T14:27:43;0.90;99.90
14188;DHT22;7175;51.978;5.330;2022-12-18T14:30:30;0.90;99.90
14188;DHT22;7175;51.978;5.330;2022-12-18T14:33:03;0.90;99.90
14188;DHT22;7175;51.978;5.330;2022-12-18T14:35:34;0.90;99.90
14188;DHT22;7175;51.978;5.330;2022-12-18T14:38:25;0.90;99.90
14188;DHT22;7175;51.978;5.330;2022-12-18T14:40:58;1.00;99.90
14188;DHT22;7175;51.978;5.330;2022-12-18T14:43:28;0.90;99.90
14188;DHT22;7175;51.978;5.330;2022-12-18T14:45:57;0.90;99.90
14188;DHT22;7175;51.978;5.330;2022-12-18T14:48:40;0.90;99.90
14188;DHT22;7175;51.978;5.330;2022-12-18T14:51:18;1.00;99.90
14188;DHT22;7175;51.978;5.330;2022-12-18T14:53:48;1.00;99.90
14188;DHT22;7175;51.978;5.330;2022-12-18T14:56:23;1.00;99.90
14188;DHT22;7175;51.978;5.330;2022-12-18T14:58:55;1.00;99.90
14188;DHT22;7175;51.978;5.330;2022-12-18T15:01:26;1.00;99.90
14188;DHT22;7175;51.978;5.330;2022-12-18T15:03:56;0.90;99.90
14188;DHT22;7175;51.978;5.330;2022-12-18T15:06:35;0.90;99.90
14188;DHT22;7175;51.978;5.330;2022-12-18T15:09:06;0.90;99.90
14188;DHT22;7175;51.978;5.330;2022-12-18T15:11:49;0.90;99.90
14188;DHT22;7175;51.978;5.330;2022-12-18T15:14:31;1.00;99.90
14188;DHT22;7175;51.978;5.330;2022-12-18T15:17:04;1.00;99.90
14188;DHT22;7175;51.978;5.330;2022-12-18T15:19:37;0.90;99.90
14188;DHT22;7175;51.978;5.330;2022-12-18T15:22:25;0.90;99.90
14188;DHT22;7175;51.978;5.330;2022-12-18T15:24:54;0.90;99.90
14188;DHT22;7175;51.978;5.330;2022-12-18T15:27:26;0.90;99.90
14188;DHT22;7175;51.978;5.330;2022-12-18T15:30:19;0.90;99.90
14188;DHT22;7175;51.978;5.330;2022-12-18T15:32:48;0.90;99.90
14188;DHT22;7175;51.978;5.330;2022-12-18T15:35:19;0.90;99.90
14188;DHT22;7175;51.978;5.330;2022-12-18T15:37:51;0.90;99.90
14188;DHT22;7175;51.978;5.330;2022-12-18T15:40:22;0.90;99.90
14188;DHT22;7175;51.978;5.330;2022-12-18T15:42:53;0.90;99.90
14188;DHT22;7175;51.978;5.330;2022-12-18T15:45:39;0.80;99.90
14188;DHT22;7175;51.978;5.330;2022-12-18T15:48:17;0.90;99.90
14188;DHT22;7175;51.978;5.330;2022-12-18T15:50:48;0.90;99.90
14188;DHT22;7175;51.978;5.330;2022-12-18T15:53:18;0.90;99.90
14188;DHT22;7175;51.978;5.330;2022-12-18T15:55:47;0.90;99.90
14188;DHT22;7175;51.978;5.330;2022-12-18T15:58:34;0.90;99.90
14188;DHT22;7175;51.978;5.330;2022-12-18T16:01:03;0.90;99.90
14188;DHT22;7175;51.978;5.330;2022-12-18T16:03:32;0.90;99.90
14188;DHT22;7175;51.978;5.330;2022-12-18T16:06:01;0.90;99.90
14188;DHT22;7175;51.978;5.330;2022-12-18T16:08:32;0.80;99.90
14188;DHT22;7175;51.978;5.330;2022-12-18T16:11:01;0.90;99.90
14188;DHT22;7175;51.978;5.330;2022-12-18T16:13:30;0.90;99.90
14188;DHT22;7175;51.978;5.330;2022-12-18T16:15:58;0.90;99.90
14188;DHT22;7175;51.978;5.330;2022-12-18T16:18:27;0.90;99.90
14188;DHT22;7175;51.978;5.330;2022-12-18T16:20:55;0.90;99.90
14188;DHT22;7175;51.978;5.330;2022-12-18T16:23:24;0.90;99.90
14188;DHT22;7175;51.978;5.330;2022-12-18T16:25:55;0.90;99.90
14188;DHT22;7175;51.978;5.330;2022-12-18T16:28:24;0.90;99.90
14188;DHT22;7175;51.978;5.330;2022-12-18T16:30:52;0.90;99.90
14188;DHT22;7175;51.978;5.330;2022-12-18T16:33:21;0.90;99.90
14188;DHT22;7175;51.978;5.330;2022-12-18T16:35:52;0.90;99.90
14188;DHT22;7175;51.978;5.330;2022-12-18T16:38:20;0.90;99.90
14188;DHT22;7175;51.978;5.330;2022-12-18T16:40:48;0.90;99.90
14188;DHT22;7175;51.978;5.330;2022-12-18T16:43:36;0.90;99.90
14188;DHT22;7175;51.978;5.330;2022-12-18T16:46:05;0.90;99.90
14188;DHT22;7175;51.978;5.330;2022-12-18T16:48:33;1.00;99.90
14188;DHT22;7175;51.978;5.330;2022-12-18T16:51:03;0.90;99.90
14188;DHT22;7175;51.978;5.330;2022-12-18T16:53:32;0.90;99.90
14188;DHT22;7175;51.978;5.330;2022-12-18T16:56:02;1.00;99.90
14188;DHT22;7175;51.978;5.330;2022-12-18T16:58:32;0.90;99.90
14188;DHT22;7175;51.978;5.330;2022-12-18T17:01:18;1.00;99.90
14188;DHT22;7175;51.978;5.330;2022-12-18T17:03:51;1.00;99.90
14188;DHT22;7175;51.978;5.330;2022-12-18T17:06:21;0.90;99.90
14188;DHT22;7175;51.978;5.330;2022-12-18T17:08:54;0.90;99.90
14188;DHT22;7175;51.978;5.330;2022-12-18T17:11:23;1.00;99.90
14188;DHT22;7175;51.978;5.330;2022-12-18T17:13:53;1.00;99.90
14188;DHT22;7175;51.978;5.330;2022-12-18T17:16:25;1.00;99.90
14188;DHT22;7175;51.978;5.330;2022-12-18T17:18:54;1.00;99.90
14188;DHT22;7175;51.978;5.330;2022-12-18T17:21:22;1.00;99.90
14188;DHT22;7175;51.978;5.330;2022-12-18T17:23:51;1.00;99.90
14188;DHT22;7175;51.978;5.330;2022-12-18T17:26:19;1.00;99.90
14188;DHT22;7175;51.978;5.330;2022-12-18T17:28:48;1.00;99.90
14188;DHT22;7175;51.978;5.330;2022-12-18T17:31:18;1.00;99.90
14188;DHT22;7175;51.978;5.330;2022-12-18T17:33:49;1.00;99.90
14188;DHT22;7175;51.978;5.330;2022-12-18T17:36:19;1.10;99.90
14188;DHT22;7175;51.978;5.330;2022-12-18T17:38:49;1.00;99.90
14188;DHT22;7175;51.978;5.330;2022-12-18T17:41:19;1.00;99.90
14188;DHT22;7175;51.978;5.330;2022-12-18T17:43:50;1.00;99.90
14188;DHT22;7175;51.978;5.330;2022-12-18T17:46:19;1.00;99.90
14188;DHT22;7175;51.978;5.330;2022-12-18T17:48:49;1.00;99.90
14188;DHT22;7175;51.978;5.330;2022-12-18T17:51:17;1.00;99.90
14188;DHT22;7175;51.978;5.330;2022-12-18T17:53:46;1.00;99.90
14188;DHT22;7175;51.978;5.330;2022-12-18T17:56:16;1.10;99.90
14188;DHT22;7175;51.978;5.330;2022-12-18T17:58:45;1.10;99.90
14188;DHT22;7175;51.978;5.330;2022-12-18T18:01:15;1.10;99.90
14188;DHT22;7175;51.978;5.330;2022-12-18T18:03:44;1.10;99.90
14188;DHT22;7175;51.978;5.330;2022-12-18T18:06:16;1.10;99.90
14188;DHT22;7175;51.978;5.330;2022-12-18T18:08:45;1.10;99.90
14188;DHT22;7175;51.978;5.330;2022-12-18T18:11:16;1.20;99.90
14188;DHT22;7175;51.978;5.330;2022-12-18T18:14:04;1.20;99.90
14188;DHT22;7175;51.978;5.330;2022-12-18T18:16:37;1.20;99.90
14188;DHT22;7175;51.978;5.330;2022-12-18T18:19:08;1.20;99.90
14188;DHT22;7175;51.978;5.330;2022-12-18T18:21:40;1.30;99.90
14188;DHT22;7175;51.978;5.330;2022-12-18T18:24:11;1.30;99.90
14188;DHT22;7175;51.978;5.330;2022-12-18T18:26:40;1.30;99.90
14188;DHT22;7175;51.978;5.330;2022-12-18T18:29:12;1.30;99.90
14188;DHT22;7175;51.978;5.330;2022-12-18T18:31:42;1.30;99.90
14188;DHT22;7175;51.978;5.330;2022-12-18T18:34:14;1.30;99.90
14188;DHT22;7175;51.978;5.330;2022-12-18T18:36:44;1.30;99.90
14188;DHT22;7175;51.978;5.330;2022-12-18T18:39:13;1.30;99.90
14188;DHT22;7175;51.978;5.330;2022-12-18T18:41:42;1.30;99.90
14188;DHT22;7175;51.978;5.330;2022-12-18T18:44:14;1.30;99.90
14188;DHT22;7175;51.978;5.330;2022-12-18T18:46:43;1.30;99.90
14188;DHT22;7175;51.978;5.330;2022-12-18T18:49:12;1.40;99.90
14188;DHT22;7175;51.978;5.330;2022-12-18T18:51:41;1.40;99.90
14188;DHT22;7175;51.978;5.330;2022-12-18T18:54:11;1.40;99.90
14188;DHT22;7175;51.978;5.330;2022-12-18T18:56:40;1.40;99.90
14188;DHT22;7175;51.978;5.330;2022-12-18T18:59:28;1.40;99.90
14188;DHT22;7175;51.978;5.330;2022-12-18T19:01:58;1.40;99.90
14188;DHT22;7175;51.978;5.330;2022-12-18T19:04:31;1.50;99.90
14188;DHT22;7175;51.978;5.330;2022-12-18T19:07:00;1.50;99.90
14188;DHT22;7175;51.978;5.330;2022-12-18T19:09:30;1.50;99.90
14188;DHT22;7175;51.978;5.330;2022-12-18T19:11:58;1.50;99.90
14188;DHT22;7175;51.978;5.330;2022-12-18T19:14:45;1.50;99.90
14188;DHT22;7175;51.978;5.330;2022-12-18T19:17:13;1.60;99.90
14188;DHT22;7175;51.978;5.330;2022-12-18T19:19:42;1.60;99.90
14188;DHT22;7175;51.978;5.330;2022-12-18T19:22:11;1.50;99.90
14188;DHT22;7175;51.978;5.330;2022-12-18T19:24:41;1.50;99.90
14188;DHT22;7175;51.978;5.330;2022-12-18T19:27:10;1.60;99.90
14188;DHT22;7175;51.978;5.330;2022-12-18T19:29:39;1.60;99.90
14188;DHT22;7175;51.978;5.330;2022-12-18T19:32:11;1.60;99.90
14188;DHT22;7175;51.978;5.330;2022-12-18T19:34:40;1.60;99.90
14188;DHT22;7175;51.978;5.330;2022-12-18T19:37:11;1.60;99.90
14188;DHT22;7175;51.978;5.330;2022-12-18T19:39:41;1.60;99.90
14188;DHT22;7175;51.978;5.330;2022-12-18T19:42:09;1.60;99.90
14188;DHT22;7175;51.978;5.330;2022-12-18T19:44:39;1.60;99.90
14188;DHT22;7175;51.978;5.330;2022-12-18T19:47:08;1.60;99.90
14188;DHT22;7175;51.978;5.330;2022-12-18T19:49:36;1.50;99.90
14188;DHT22;7175;51.978;5.330;2022-12-18T19:52:05;1.50;99.90
14188;DHT22;7175;51.978;5.330;2022-12-18T19:54:35;1.50;99.90
14188;DHT22;7175;51.978;5.330;2022-12-18T19:57:05;1.50;99.90
14188;DHT22;7175;51.978;5.330;2022-12-18T19:59:37;1.50;99.90
14188;DHT22;7175;51.978;5.330;2022-12-18T20:02:10;1.40;99.90
14188;DHT22;7175;51.978;5.330;2022-12-18T20:04:40;1.40;99.90
14188;DHT22;7175;51.978;5.330;2022-12-18T20:07:09;1.40;99.90
14188;DHT22;7175;51.978;5.330;2022-12-18T20:09:37;1.40;99.90
14188;DHT22;7175;51.978;5.330;2022-12-18T20:12:08;1.40;99.90
14188;DHT22;7175;51.978;5.330;2022-12-18T20:14:37;1.40;99.90
14188;DHT22;7175;51.978;5.330;2022-12-18T20:17:06;1.30;99.90
14188;DHT22;7175;51.978;5.330;2022-12-18T20:19:35;1.30;99.90
14188;DHT22;7175;51.978;5.330;2022-12-18T20:22:04;1.30;99.90
14188;DHT22;7175;51.978;5.330;2022-12-18T20:24:33;1.30;99.90
14188;DHT22;7175;51.978;5.330;2022-12-18T20:27:01;1.30;99.90
14188;DHT22;7175;51.978;5.330;2022-12-18T20:29:31;1.30;99.90
14188;DHT22;7175;51.978;5.330;2022-12-18T20:32:00;1.30;99.90
14188;DHT22;7175;51.978;5.330;2022-12-18T20:34:29;1.30;99.90
14188;DHT22;7175;51.978;5.330;2022-12-18T20:36:57;1.20;99.90
14188;DHT22;7175;51.978;5.330;2022-12-18T20:39:26;1.20;99.90
14188;DHT22;7175;51.978;5.330;2022-12-18T20:41:55;1.20;99.90
14188;DHT22;7175;51.978;5.330;2022-12-18T20:44:25;1.20;99.90
14188;DHT22;7175;51.978;5.330;2022-12-18T20:46:56;1.20;99.90
14188;DHT22;7175;51.978;5.330;2022-12-18T20:49:33;1.20;99.90
14188;DHT22;7175;51.978;5.330;2022-12-18T20:52:03;1.20;99.90
14188;DHT22;7175;51.978;5.330;2022-12-18T20:54:32;1.20;99.90
14188;DHT22;7175;51.978;5.330;2022-12-18T20:57:00;1.20;99.90
14188;DHT22;7175;51.978;5.330;2022-12-18T21:01:59;1.20;99.90
14188;DHT22;7175;51.978;5.330;2022-12-18T21:04:28;1.20;99.90
14188;DHT22;7175;51.978;5.330;2022-12-18T21:06:57;1.20;99.90
14188;DHT22;7175;51.978;5.330;2022-12-18T21:09:28;1.20;99.90
14188;DHT22;7175;51.978;5.330;2022-12-18T21:12:06;1.20;99.90
14188;DHT22;7175;51.978;5.330;2022-12-18T21:14:52;1.20;99.90
14188;DHT22;7175;51.978;5.330;2022-12-18T21:17:22;1.20;99.90
14188;DHT22;7175;51.978;5.330;2022-12-18T21:19:52;1.20;99.90
14188;DHT22;7175;51.978;5.330;2022-12-18T21:22:21;1.20;99.90
14188;DHT22;7175;51.978;5.330;2022-12-18T21:24:50;1.20;99.90
14188;DHT22;7175;51.978;5.330;2022-12-18T21:27:18;1.20;99.90
14188;DHT22;7175;51.978;5.330;2022-12-18T21:29:47;1.20;99.90
14188;DHT22;7175;51.978;5.330;2022-12-18T21:32:18;1.20;99.90
14188;DHT22;7175;51.978;5.330;2022-12-18T21:34:50;1.30;99.90
14188;DHT22;7175;51.978;5.330;2022-12-18T21:37:19;1.30;99.90
14188;DHT22;7175;51.978;5.330;2022-12-18T21:39:47;1.30;99.90
14188;DHT22;7175;51.978;5.330;2022-12-18T21:42:16;1.30;99.90
14188;DHT22;7175;51.978;5.330;2022-12-18T21:45:02;1.30;99.90
14188;DHT22;7175;51.978;5.330;2022-12-18T21:47:30;1.30;99.90
14188;DHT22;7175;51.978;5.330;2022-12-18T21:50:00;1.30;99.90
14188;DHT22;7175;51.978;5.330;2022-12-18T21:52:29;1.30;99.90
14188;DHT22;7175;51.978;5.330;2022-12-18T21:54:59;1.40;99.90
14188;DHT22;7175;51.978;5.330;2022-12-18T21:57:36;1.40;99.90
14188;DHT22;7175;51.978;5.330;2022-12-18T22:00:06;1.40;99.90
14188;DHT22;7175;51.978;5.330;2022-12-18T22:02:37;1.40;99.90
14188;DHT22;7175;51.978;5.330;2022-12-18T22:05:08;1.40;99.90
14188;DHT22;7175;51.978;5.330;2022-12-18T22:07:37;1.40;99.90
14188;DHT22;7175;51.978;5.330;2022-12-18T22:10:06;1.40;99.90
14188;DHT22;7175;51.978;5.330;2022-12-18T22:12:35;1.40;99.90
14188;DHT22;7175;51.978;5.330;2022-12-18T22:15:11;1.50;99.90
14188;DHT22;7175;51.978;5.330;2022-12-18T22:17:48;1.40;99.90
14188;DHT22;7175;51.978;5.330;2022-12-18T22:20:27;1.50;99.90
14188;DHT22;7175;51.978;5.330;2022-12-18T22:22:56;1.50;99.90
14188;DHT22;7175;51.978;5.330;2022-12-18T22:25:40;1.50;99.90
14188;DHT22;7175;51.978;5.330;2022-12-18T22:28:08;1.50;99.90
14188;DHT22;7175;51.978;5.330;2022-12-18T22:30:54;1.50;99.90
14188;DHT22;7175;51.978;5.330;2022-12-18T22:33:26;1.50;99.90
14188;DHT22;7175;51.978;5.330;2022-12-18T22:35:56;1.50;99.90
14188;DHT22;7175;51.978;5.330;2022-12-18T22:38:24;1.50;99.90
14188;DHT22;7175;51.978;5.330;2022-12-18T22:40:53;1.60;99.90
14188;DHT22;7175;51.978;5.330;2022-12-18T22:43:22;1.60;99.90
14188;DHT22;7175;51.978;5.330;2022-12-18T22:45:50;1.60;99.90
14188;DHT22;7175;51.978;5.330;2022-12-18T22:48:19;1.60;99.90
14188;DHT22;7175;51.978;5.330;2022-12-18T22:50:47;1.60;99.90
14188;DHT22;7175;51.978;5.330;2022-12-18T22:53:18;1.60;99.90
14188;DHT22;7175;51.978;5.330;2022-12-18T22:55:46;1.60;99.90
14188;DHT22;7175;51.978;5.330;2022-12-18T22:58:14;1.60;99.90
14188;DHT22;7175;51.978;5.330;2022-12-18T23:00:42;1.60;99.90
14188;DHT22;7175;51.978;5.330;2022-12-18T23:03:10;1.60;99.90
14188;DHT22;7175;51.978;5.330;2022-12-18T23:05:38;1.60;99.90
14188;DHT22;7175;51.978;5.330;2022-12-18T23:08:06;1.60;99.90
14188;DHT22;7175;51.978;5.330;2022-12-18T23:10:37;1.60;99.90
14188;DHT22;7175;51.978;5.330;2022-12-18T23:13:05;1.60;99.90
14188;DHT22;7175;51.978;5.330;2022-12-18T23:15:34;1.70;99.90
14188;DHT22;7175;51.978;5.330;2022-12-18T23:18:02;1.70;99.90
14188;DHT22;7175;51.978;5.330;2022-12-18T23:20:30;1.70;99.90
14188;DHT22;7175;51.978;5.330;2022-12-18T23:23:00;1.70;99.90
14188;DHT22;7175;51.978;5.330;2022-12-18T23:25:28;1.70;99.90
14188;DHT22;7175;51.978;5.330;2022-12-18T23:27:57;1.70;99.90
14188;DHT22;7175;51.978;5.330;2022-12-18T23:30:25;1.70;99.90
14188;DHT22;7175;51.978;5.330;2022-12-18T23:32:53;1.70;99.90
14188;DHT22;7175;51.978;5.330;2022-12-18T23:35:22;1.70;99.90
14188;DHT22;7175;51.978;5.330;2022-12-18T23:37:50;1.70;99.90
14188;DHT22;7175;51.978;5.330;2022-12-18T23:40:27;1.70;99.90
14188;DHT22;7175;51.978;5.330;2022-12-18T23:42:57;1.70;99.90
14188;DHT22;7175;51.978;5.330;2022-12-18T23:45:26;1.70;99.90
14188;DHT22;7175;51.978;5.330;2022-12-18T23:47:54;1.70;99.90
14188;DHT22;7175;51.978;5.330;2022-12-18T23:50:22;1.80;99.90
14188;DHT22;7175;51.978;5.330;2022-12-18T23:52:58;1.80;99.90
14188;DHT22;7175;51.978;5.330;2022-12-18T23:55:31;1.80;99.90
14188;DHT22;7175;51.978;5.330;2022-12-18T23:58:00;1.70;99.90
